»·PEaware :: QFA314 YMML-YSSY

QFA314 :: YMML-YSSY

FLIGHT INFORMATION

Flight Status: Arrived
Operator:
Qantas Airways
More flights by this operator :: More flights under this callsign
Pilot: Timothy W. (9658)
Aircraft: AIRBUS A320
(A320)
More flights by this aircraft type
Origin: YMML Melbourne Intl
Australia
Destination: YSSY Kingsford Smith Intl
Australia
More flights between these airports :: More routes between these airports
Route: DOSEL1 DOSEL Y59 RIVET RIVET3
File this flight plan on PilotEdge
Remarks:
Altitude:
(Current/Filed)
37,000ft
Speed:
(Current/Filed)
443kts
Departed: 25-Jun-19 02:38 PM
Arrived: 25-Jun-19 03:39 PM
Distance/Time
Traveled:
381nm/1:01
Distance/Time
To Go:
Arrived

Flight Plot

Page will automatically refresh every two minutes.

Flight plan parsing failed; only flown route is shown


Map Options




Map Legend


Flown Route
Filed Route
Departure Airport
Arrival Airport
Navaid (VOR, NDB)
Fix

Horizontal Profiles

Position Reports

Time Latitude Longitude Heading Altitude Ground
Speed
25-Jun-19 13:41 -37.671357 144.847022 27 399ft 0kts
25-Jun-19 13:42 -37.671357 144.847022 27 399ft 0kts
25-Jun-19 13:43 -37.671357 144.847022 27 399ft 0kts
25-Jun-19 13:44 -37.671357 144.847022 27 399ft 0kts
25-Jun-19 13:45 -37.671357 144.847022 27 399ft 0kts
25-Jun-19 13:46 -37.671357 144.847022 27 399ft 0kts
25-Jun-19 13:47 -37.671357 144.847022 27 399ft 0kts
25-Jun-19 13:48 -37.671357 144.847022 27 399ft 0kts
25-Jun-19 13:49 -37.671357 144.847022 27 399ft 0kts
25-Jun-19 13:50 -37.671357 144.847022 27 399ft 0kts
25-Jun-19 13:51 -37.671357 144.847022 27 399ft 0kts
25-Jun-19 13:52 -37.671357 144.847022 27 399ft 0kts
25-Jun-19 13:53 -37.671357 144.847022 27 399ft 0kts
25-Jun-19 13:54 -37.671357 144.847022 27 399ft 0kts
25-Jun-19 13:55 -37.671357 144.847022 27 399ft 0kts
25-Jun-19 13:56 -37.671357 144.847022 27 399ft 0kts
25-Jun-19 13:57 -37.671357 144.847022 27 399ft 0kts
25-Jun-19 13:58 -37.671357 144.847022 27 399ft 0kts
25-Jun-19 13:59 -37.671357 144.847022 27 399ft 0kts
25-Jun-19 14:00 -37.671357 144.847022 27 399ft 0kts
25-Jun-19 14:01 -37.671357 144.847022 27 399ft 0kts
25-Jun-19 14:02 -37.671357 144.847022 27 399ft 0kts
25-Jun-19 14:03 -37.671357 144.847022 27 399ft 0kts
25-Jun-19 14:04 -37.671357 144.847022 27 399ft 0kts
25-Jun-19 14:05 -37.671357 144.847022 27 399ft 0kts
25-Jun-19 14:06 -37.671357 144.847022 27 399ft 0kts
25-Jun-19 14:07 -37.671357 144.847022 27 399ft 0kts
25-Jun-19 14:08 -37.671357 144.847022 27 399ft 0kts
25-Jun-19 14:09 -37.671357 144.847022 27 399ft 0kts
25-Jun-19 14:10 -37.671357 144.847022 27 399ft 0kts
25-Jun-19 14:11 -37.671357 144.847022 27 399ft 0kts
25-Jun-19 14:12 -37.671357 144.847022 27 399ft 0kts
25-Jun-19 14:13 -37.671357 144.847022 27 399ft 0kts
25-Jun-19 14:14 -37.671357 144.847022 27 398ft 0kts
25-Jun-19 14:15 -37.671357 144.847022 27 398ft 0kts
25-Jun-19 14:16 -37.671357 144.847022 27 398ft 0kts
25-Jun-19 14:17 -37.671357 144.847022 27 398ft 0kts
25-Jun-19 14:18 -37.671357 144.847022 27 398ft 0kts
25-Jun-19 14:19 -37.671357 144.847022 27 398ft 0kts
25-Jun-19 14:20 -37.671357 144.847022 27 398ft 0kts
25-Jun-19 14:21 -37.671357 144.847022 27 398ft 0kts
25-Jun-19 14:22 -37.671357 144.847022 27 398ft 0kts
25-Jun-19 14:23 -37.671357 144.847022 27 398ft 0kts
25-Jun-19 14:24 -37.671357 144.847022 27 398ft 0kts
25-Jun-19 14:25 -37.671357 144.847022 27 398ft 0kts
25-Jun-19 14:26 -37.671580 144.846875 27 397ft 2kts
25-Jun-19 14:27 -37.671917 144.846885 261 396ft 3kts
25-Jun-19 14:28 -37.671927 144.846809 260 396ft 0kts
25-Jun-19 14:30 -37.671927 144.846809 260 396ft 0kts
25-Jun-19 14:31 -37.672093 144.845425 263 390ft 0kts
25-Jun-19 14:32 -37.672136 144.845116 252 388ft 8kts
25-Jun-19 14:33 -37.674922 144.843257 171 377ft 16kts
25-Jun-19 14:34 -37.679693 144.844146 172 361ft 19kts
25-Jun-19 14:35 -37.684400 144.843898 214 345ft 17kts
25-Jun-19 14:36 -37.685491 144.842490 262 343ft 0kts
25-Jun-19 14:37 -37.685659 144.841000 296 343ft 0kts
25-Jun-19 14:38 -37.668834 144.837856 353 561ft 161kts
25-Jun-19 14:39 -37.624710 144.829543 351 3780ft 175kts
25-Jun-19 14:40 -37.568234 144.836729 24 5966ft 254kts
25-Jun-19 14:41 -37.501971 144.877159 24 9188ft 276kts
25-Jun-19 14:42 -37.432123 144.925313 48 11629ft 323kts
25-Jun-19 14:43 -37.375613 145.024993 53 13536ft 367kts
25-Jun-19 14:44 -37.315430 145.131283 53 15767ft 386kts
25-Jun-19 14:45 -37.253282 145.240704 54 17896ft 399kts
25-Jun-19 14:46 -37.188001 145.355278 56 19810ft 412kts
25-Jun-19 14:47 -37.122265 145.470188 56 21344ft 428kts
25-Jun-19 14:48 -37.052816 145.591075 57 22760ft 444kts
25-Jun-19 14:48 -36.992316 145.696028 57 23907ft 455kts
25-Jun-19 14:50 -36.905511 145.846009 57 25663ft 462kts
25-Jun-19 14:51 -36.829317 145.977161 57 26902ft 471kts
25-Jun-19 14:51 -36.766266 146.085295 57 27841ft 478kts
25-Jun-19 14:53 -36.675757 146.239916 56 29064ft 487kts
25-Jun-19 14:53 -36.610655 146.350678 57 29969ft 490kts
25-Jun-19 14:54 -36.534898 146.479153 57 30780ft 495kts
25-Jun-19 14:55 -36.454286 146.615287 57 31802ft 495kts
25-Jun-19 14:56 -36.373942 146.750455 57 32708ft 494kts
25-Jun-19 14:57 -36.292936 146.886200 57 33538ft 495kts
25-Jun-19 14:58 -36.211569 147.022006 57 34390ft 494kts
25-Jun-19 14:59 -36.131015 147.155919 56 35140ft 493kts
25-Jun-19 15:00 -36.049482 147.290925 56 35849ft 493kts
25-Jun-19 15:01 -35.968133 147.425100 56 36532ft 492kts
25-Jun-19 15:02 -35.886032 147.559991 56 37135ft 492kts
25-Jun-19 15:03 -35.803713 147.694708 55 37621ft 494kts
25-Jun-19 15:04 -35.721319 147.829006 55 37599ft 489kts
25-Jun-19 15:05 -35.639666 147.961597 55 37602ft 488kts
25-Jun-19 15:06 -35.557796 148.094047 55 37603ft 489kts
25-Jun-19 15:07 -35.476113 148.225678 54 37604ft 489kts
25-Jun-19 15:08 -35.394899 148.356052 54 37663ft 488kts
25-Jun-19 15:09 -35.315283 148.483390 54 37650ft 487kts
25-Jun-19 15:10 -35.233453 148.613789 54 37649ft 487kts
25-Jun-19 15:11 -35.152907 148.741666 54 37656ft 486kts
25-Jun-19 15:12 -35.071320 148.870712 53 37672ft 484kts
25-Jun-19 15:13 -34.989909 148.999022 53 37653ft 483kts
25-Jun-19 15:14 -34.908368 149.127072 53 37645ft 483kts
25-Jun-19 15:15 -34.826123 149.255749 52 37117ft 482kts
25-Jun-19 15:16 -34.744733 149.383826 56 36164ft 477kts
25-Jun-19 15:17 -34.681457 149.524432 62 33458ft 480kts
25-Jun-19 15:18 -34.618698 149.667921 62 30188ft 489kts
25-Jun-19 15:19 -34.554615 149.813802 62 26531ft 497kts
25-Jun-19 15:20 -34.491170 149.957571 63 23487ft 486kts
25-Jun-19 15:21 -34.430151 150.095193 63 21072ft 447kts
25-Jun-19 15:22 -34.374557 150.220158 62 18382ft 418kts
25-Jun-19 15:23 -34.320489 150.341421 63 15878ft 404kts
25-Jun-19 15:24 -34.270563 150.452971 63 13509ft 391kts
25-Jun-19 15:25 -34.222312 150.560856 63 11308ft 373kts
25-Jun-19 15:26 -34.177066 150.661538 63 10595ft 320kts
25-Jun-19 15:27 -34.138116 150.748044 63 10094ft 275kts
25-Jun-19 15:28 -34.099624 150.833618 63 8964ft 295kts
25-Jun-19 15:29 -34.061151 150.919087 63 8008ft 291kts
25-Jun-19 15:30 -34.022687 151.004325 63 7065ft 288kts
25-Jun-19 15:31 -33.955604 151.044015 2 6117ft 292kts
25-Jun-19 15:32 -33.875750 151.055472 12 5352ft 289kts
25-Jun-19 15:33 -33.798980 151.074880 18 3910ft 284kts
25-Jun-19 15:34 -33.781473 151.142759 148 2945ft 230kts
25-Jun-19 15:35 -33.838256 151.148090 169 1848ft 192kts
25-Jun-19 15:36 -33.883735 151.159773 169 960ft 146kts
25-Jun-19 15:37 -33.921640 151.169599 169 227ft 139kts
25-Jun-19 15:38 -33.945324 151.176119 110 25ft 9kts
25-Jun-19 15:39 -33.945136 151.177575 59 26ft 9kts
25-Jun-19 15:40 -33.941048 151.176648 345 13ft 18kts
25-Jun-19 15:41 -33.936668 151.175798 31 9ft 15kts
25-Jun-19 15:42 -33.935972 151.176855 76 10ft 0kts
25-Jun-19 15:43 -33.935972 151.176855 76 10ft 0kts
25-Jun-19 15:44 -33.935972 151.176855 76 10ft 0kts
25-Jun-19 15:45 -33.935972 151.176855 76 10ft 0kts
25-Jun-19 15:46 -33.935972 151.176855 76 10ft 0kts
25-Jun-19 15:47 -33.935972 151.176855 76 10ft 0kts
25-Jun-19 15:48 -33.935972 151.176855 76 10ft 0kts
25-Jun-19 15:49 -33.935972 151.176855 76 10ft 0kts

Navigation Log

Ident Type
Flight plan parsing failed, navigation log unavailable